Airfield :
LOGIN :

Register | Disclaimer

   EN    FR    IT 

 










Legend :    VFR   Marginal VFR   IFR   Intensive IFR   Very Intensive IFR
Visi :
Ceiling :
>= 8 km
>= 3000ft
5 to 8 km
1000 to 3000 ft
1500m to 5 km
500 to 1000 ft
800 to 1500m
200 to 500 ft
< 800m
< 200 ft
Symbols :   Thunderstorms  Fog  Heavy snow  Heavy precipitations  Wind > 20 kt
SIGMETs :     Misc.  Thunderstorms  Icing  Turbulence  Mountain Waves  Volcanic Ashes






- Airport Elevation : 240 ft
- IATA code : VLC


LEVC - Valencia Manises

CURRENT METAR :
  • 261830Z 28012G23KT CAVOK 25/06 Q1011 NOSIG

EXPIRED METARs :
  • 261800Z 27014KT CAVOK 26/06 Q1011 NOSIG
  • 261730Z 27014KT 240V300 CAVOK 27/06 Q1011 NOSIG
  • 261700Z 26014KT CAVOK 27/06 Q1011 NOSIG
  • 261630Z 24009KT 200V260 CAVOK 28/06 Q1011 NOSIG
  • 261600Z 22011KT CAVOK 28/05 Q1011 NOSIG

TAF TAF LEVC
Valid from the 26 at 18:00 until the 27 at 18:00 UTC


261700Z 2618/2718 27005KT 9999 FEW030 TX26/2713Z TN16/2706Z
PROB40
TEMPO 2618/2619 18010KT
BECMG 2706/2708 33010KT
BECMG 2712/2714 14010KT



MET'MAP, your aeronautical weather chart ! - Copyright ORBIFLY December 2007 - Disclaimer

ORBIFLY MET'MAP TEAM :

Programming & Development : Alexandra Zaïnal
Concept & original design : Baudouin d'Aumeries
Assistance for programming : Marc-Olivier Méhu
Technical & hardware support : Manuel Goepfert

Contact : metmap@orbifly.com




SOURCES & CREDITS :

   NOAA